createdAt,value
2023-02-08T00:01:23.065Z,36.00
2023-02-08T00:03:51.467Z,40.63
2023-02-08T00:06:20.738Z,40.63
2023-02-08T00:08:49.116Z,44.60
2023-02-08T00:11:19.316Z,41.60
2023-02-08T00:13:47.812Z,43.55
2023-02-08T00:16:18.533Z,44.05
2023-02-08T00:18:46.932Z,41.45
2023-02-08T00:21:16.820Z,42.33
2023-02-08T00:23:45.449Z,40.97
2023-02-08T00:26:14.845Z,40.42
2023-02-08T00:28:44.612Z,41.15
2023-02-08T00:31:13.201Z,40.53
2023-02-08T00:33:41.676Z,40.75
2023-02-08T00:36:11.907Z,41.28
2023-02-08T00:38:40.316Z,41.65
2023-02-08T00:41:08.969Z,40.72
2023-02-08T00:43:37.675Z,38.15
2023-02-08T00:46:08.195Z,37.65
2023-02-08T00:48:36.612Z,38.95
2023-02-08T00:51:07.031Z,38.60
2023-02-08T00:53:37.208Z,40.20
2023-02-08T00:56:06.753Z,39.38
2023-02-08T00:58:36.104Z,40.60
2023-02-08T01:01:07.545Z,39.55
2023-02-08T01:03:36.738Z,38.70
2023-02-08T01:06:08.134Z,40.72
2023-02-08T01:08:36.463Z,38.45
2023-02-08T01:11:07.010Z,38.58
2023-02-08T01:13:35.428Z,42.67
2023-02-08T01:16:10.227Z,39.15
2023-02-08T01:18:38.883Z,37.50
2023-02-08T01:21:09.236Z,37.40
2023-02-08T01:23:38.143Z,34.10
2023-02-08T01:26:07.267Z,36.45
2023-02-08T01:28:36.191Z,34.97
2023-02-08T01:31:09.068Z,34.88
2023-02-08T01:33:37.905Z,34.85
2023-02-08T01:36:07.811Z,33.60
2023-02-08T01:38:36.379Z,35.03
2023-02-08T01:41:06.019Z,34.85
2023-02-08T01:43:44.175Z,34.70
2023-02-08T01:46:14.014Z,31.00
2023-02-08T01:48:42.677Z,31.33
2023-02-08T01:51:16.368Z,30.98
2023-02-08T01:53:45.060Z,29.25
2023-02-08T01:56:17.331Z,31.20
2023-02-08T01:58:49.243Z,31.38
2023-02-08T02:01:19.488Z,31.27
2023-02-08T02:03:48.135Z,29.25
2023-02-08T02:06:19.372Z,30.55
2023-02-08T02:08:52.896Z,30.13
2023-02-08T02:11:22.040Z,30.38
2023-02-08T02:13:51.302Z,28.58
2023-02-08T02:16:21.927Z,29.25
2023-02-08T02:18:50.231Z,31.55
2023-02-08T02:21:32.098Z,29.35
2023-02-08T02:24:25.271Z,29.45
2023-02-08T02:27:26.276Z,30.70
2023-02-08T02:30:22.432Z,29.67
2023-02-08T02:33:01.566Z,29.40
2023-02-08T02:35:34.076Z,29.95
2023-02-08T02:38:09.561Z,30.80
2023-02-08T02:40:45.258Z,31.75
2023-02-08T02:43:36.115Z,32.60
2023-02-08T02:46:07.485Z,31.30
2023-02-08T02:48:42.764Z,29.40
2023-02-08T02:51:14.208Z,30.77
2023-02-08T02:53:47.959Z,32.35
2023-02-08T02:56:20.050Z,32.20
2023-02-08T02:58:48.957Z,32.88
2023-02-08T03:01:26.248Z,32.33
2023-02-08T03:03:57.751Z,32.45
2023-02-08T03:06:35.952Z,32.45
2023-02-08T03:09:30.858Z,32.33
2023-02-08T03:12:05.574Z,33.30
2023-02-08T03:14:43.298Z,33.05
2023-02-08T03:17:22.973Z,32.00
2023-02-08T03:20:00.308Z,32.47
2023-02-08T03:22:36.303Z,31.85
2023-02-08T03:25:09.428Z,30.58
2023-02-08T03:27:41.076Z,33.30
2023-02-08T03:30:13.098Z,31.88
2023-02-08T03:32:44.686Z,32.58
2023-02-08T03:35:18.062Z,32.72
2023-02-08T03:37:48.920Z,31.17
2023-02-08T03:40:19.875Z,33.83
2023-02-08T03:42:49.346Z,26.73
2023-02-08T03:45:21.368Z,32.88
2023-02-08T03:47:51.232Z,31.27
2023-02-08T03:50:22.717Z,31.33
2023-02-08T03:55:23.534Z,31.70
2023-02-08T04:00:23.642Z,31.38
2023-02-08T04:02:56.173Z,33.08
2023-02-08T04:05:26.796Z,32.78
2023-02-08T04:07:55.754Z,31.83
2023-02-08T04:10:24.594Z,30.90
2023-02-08T04:12:52.936Z,28.92
2023-02-08T04:15:22.128Z,30.88
2023-02-08T04:17:50.757Z,30.00
2023-02-08T04:20:19.526Z,29.55
2023-02-08T04:22:49.227Z,31.60
2023-02-08T04:25:18.851Z,30.02
2023-02-08T04:27:47.559Z,31.85
2023-02-08T04:30:16.682Z,32.08
2023-02-08T04:32:45.112Z,30.10
2023-02-08T04:35:13.734Z,29.98
2023-02-08T04:37:42.226Z,37.45
2023-02-08T04:40:13.582Z,35.20
2023-02-08T04:42:41.891Z,36.67
2023-02-08T04:45:11.644Z,31.58
2023-02-08T04:47:40.043Z,33.38
2023-02-08T04:50:08.834Z,32.47
2023-02-08T04:52:37.255Z,30.88
2023-02-08T04:55:06.390Z,34.83
2023-02-08T04:57:36.164Z,31.88
2023-02-08T05:00:05.309Z,30.73
2023-02-08T05:02:33.719Z,31.40
2023-02-08T05:05:02.606Z,30.02
2023-02-08T05:07:31.848Z,30.70
2023-02-08T05:10:00.395Z,31.60
2023-02-08T05:12:28.675Z,28.60
2023-02-08T05:14:58.787Z,25.90
2023-02-08T05:17:27.147Z,25.75
2023-02-08T05:19:55.897Z,26.42
2023-02-08T05:22:24.259Z,27.10
2023-02-08T05:24:52.980Z,27.45
2023-02-08T05:27:21.249Z,27.30
2023-02-08T05:29:50.040Z,25.80
2023-02-08T05:32:20.080Z,29.05
2023-02-08T05:34:49.097Z,27.95
2023-02-08T05:37:17.353Z,27.42
2023-02-08T05:39:45.859Z,29.38
2023-02-08T05:42:14.285Z,28.08
2023-02-08T05:44:42.855Z,29.83
2023-02-08T05:47:11.185Z,29.60
2023-02-08T05:49:41.084Z,30.55
2023-02-08T05:52:09.821Z,29.25
2023-02-08T05:54:38.385Z,32.25
2023-02-08T05:57:07.044Z,29.63
2023-02-08T05:59:35.838Z,31.27
2023-02-08T06:02:04.170Z,29.98
2023-02-08T06:04:32.970Z,32.67
2023-02-08T06:07:02.673Z,30.00
2023-02-08T06:09:31.319Z,32.28
2023-02-08T06:11:59.746Z,33.13
2023-02-08T06:14:28.278Z,34.42
2023-02-08T06:16:56.862Z,33.28
2023-02-08T06:19:25.562Z,34.17
2023-02-08T06:21:54.013Z,32.50
2023-02-08T06:24:25.518Z,32.90
2023-02-08T06:29:22.160Z,32.50
2023-02-08T06:31:50.603Z,30.77
2023-02-08T06:34:19.508Z,31.20
2023-02-08T06:36:47.942Z,32.15
2023-02-08T06:39:16.581Z,36.58
2023-02-08T06:41:46.339Z,32.88
2023-02-08T06:44:14.943Z,32.00
2023-02-08T06:46:43.197Z,33.13
2023-02-08T06:49:12.706Z,33.08
2023-02-08T06:51:41.645Z,34.63
2023-02-08T06:54:11.108Z,36.58
2023-02-08T06:56:39.678Z,37.58
2023-02-08T06:59:09.706Z,33.63
2023-02-08T07:01:38.016Z,34.78
2023-02-08T07:04:07.127Z,36.53
2023-02-08T07:06:35.458Z,38.25
2023-02-08T07:09:04.406Z,37.25
2023-02-08T07:11:33.122Z,35.60
2023-02-08T07:14:01.964Z,37.28
2023-02-08T07:16:31.632Z,37.53
2023-02-08T07:19:00.315Z,36.30
2023-02-08T07:21:28.557Z,37.85
2023-02-08T07:23:57.307Z,34.60
2023-02-08T07:26:25.610Z,35.00
2023-02-08T07:28:54.436Z,32.83
2023-02-08T07:31:23.208Z,34.97
2023-02-08T07:33:53.260Z,31.05
2023-02-08T07:36:21.674Z,32.22
2023-02-08T07:38:50.189Z,34.85
2023-02-08T07:41:18.613Z,31.52
2023-02-08T07:43:47.348Z,32.80
2023-02-08T07:46:17.230Z,31.15
2023-02-08T07:48:45.932Z,33.67
2023-02-08T07:51:15.650Z,32.17
2023-02-08T07:53:44.299Z,30.73
2023-02-08T07:56:12.695Z,31.10
2023-02-08T07:58:41.874Z,30.67
2023-02-08T08:01:21.578Z,30.70
2023-02-08T08:03:51.133Z,28.52
2023-02-08T08:06:21.985Z,29.70
2023-02-08T08:11:23.022Z,25.42
2023-02-08T08:13:52.617Z,32.05
2023-02-08T08:16:21.497Z,28.70
2023-02-08T08:18:50.882Z,26.02
2023-02-08T08:21:20.767Z,25.88
2023-02-08T08:23:49.261Z,28.90
2023-02-08T08:26:19.403Z,27.00
2023-02-08T08:28:48.387Z,26.73
2023-02-08T08:31:18.913Z,27.70
2023-02-08T08:33:48.009Z,25.08
2023-02-08T08:36:16.615Z,23.90
2023-02-08T08:38:46.609Z,23.42
2023-02-08T08:41:17.346Z,29.52
2023-02-08T08:43:46.344Z,27.48
2023-02-08T08:46:15.318Z,21.33
2023-02-08T08:48:43.891Z,24.42
2023-02-08T08:51:12.348Z,26.63
2023-02-08T08:53:40.977Z,19.48
2023-02-08T08:56:10.795Z,16.00
2023-02-08T08:58:39.887Z,15.15
2023-02-08T09:01:08.167Z,16.08
2023-02-08T09:03:37.149Z,14.75
2023-02-08T09:06:05.859Z,14.40
2023-02-08T09:08:35.018Z,14.70
2023-02-08T09:11:07.793Z,14.07
2023-02-08T09:13:38.182Z,12.20
2023-02-08T09:16:09.624Z,13.43
2023-02-08T09:18:38.779Z,14.23
2023-02-08T09:21:07.882Z,13.57
2023-02-08T09:23:36.462Z,14.18
2023-02-08T09:26:05.404Z,16.13
2023-02-08T09:28:34.187Z,14.55
2023-02-08T09:31:10.511Z,13.48
2023-02-08T09:33:39.521Z,13.60
2023-02-08T09:36:08.679Z,14.50
2023-02-08T09:38:37.441Z,14.10
2023-02-08T09:41:18.887Z,14.93
2023-02-08T09:43:53.793Z,15.43
2023-02-08T09:46:26.069Z,13.98
2023-02-08T09:48:57.127Z,15.52
2023-02-08T09:51:31.135Z,16.75
2023-02-08T09:54:02.846Z,16.25
2023-02-08T09:56:36.358Z,13.20
2023-02-08T09:59:06.410Z,15.13
2023-02-08T10:01:37.354Z,16.77
2023-02-08T10:04:16.893Z,18.85
2023-02-08T10:06:45.291Z,15.80
2023-02-08T10:09:16.397Z,16.77
2023-02-08T10:11:52.278Z,15.02
2023-02-08T10:14:36.250Z,14.90
2023-02-08T10:17:14.493Z,27.08
2023-02-08T10:19:55.769Z,15.40
2023-02-08T10:22:30.999Z,17.42
2023-02-08T10:25:26.542Z,17.23
2023-02-08T10:28:08.681Z,16.08
2023-02-08T10:30:41.975Z,16.98
2023-02-08T10:33:19.421Z,15.38
2023-02-08T10:35:50.565Z,15.10
2023-02-08T10:38:25.412Z,17.23
2023-02-08T10:40:56.876Z,16.77
2023-02-08T10:43:30.538Z,17.50
2023-02-08T10:46:04.099Z,15.80
2023-02-08T10:48:47.972Z,17.65
2023-02-08T10:51:21.639Z,17.27
2023-02-08T10:53:50.324Z,18.08
2023-02-08T10:56:38.829Z,15.65
2023-02-08T10:59:13.292Z,17.10
2023-02-08T11:01:42.310Z,15.30
2023-02-08T11:04:13.410Z,15.75
2023-02-08T11:06:43.502Z,13.77
2023-02-08T11:09:25.656Z,15.07
2023-02-08T11:11:55.249Z,15.02
2023-02-08T11:14:40.992Z,18.50
2023-02-08T11:17:26.723Z,13.63
2023-02-08T11:19:56.923Z,12.47
2023-02-08T11:22:31.396Z,16.58
2023-02-08T11:25:01.096Z,16.17
2023-02-08T11:27:35.219Z,13.45
2023-02-08T11:30:23.305Z,13.10
2023-02-08T11:33:19.286Z,11.18
2023-02-08T11:36:03.504Z,12.60
2023-02-08T11:38:34.193Z,12.25
2023-02-08T11:41:04.487Z,12.93
2023-02-08T11:43:35.442Z,14.52
2023-02-08T11:46:05.121Z,13.27
2023-02-08T11:48:41.452Z,15.45
2023-02-08T11:51:10.742Z,14.85
2023-02-08T11:53:41.696Z,14.35
2023-02-08T11:56:18.790Z,15.30
2023-02-08T11:59:06.919Z,16.05
2023-02-08T12:01:37.070Z,17.10
2023-02-08T12:04:09.536Z,15.10
2023-02-08T12:07:07.446Z,13.07
2023-02-08T12:10:17.133Z,16.48
2023-02-08T12:12:55.240Z,26.42
2023-02-08T12:15:32.942Z,27.17
2023-02-08T12:18:10.636Z,12.25
2023-02-08T12:20:42.220Z,14.30
2023-02-08T12:23:37.255Z,39.67
2023-02-08T12:26:14.154Z,11.38
2023-02-08T12:28:51.963Z,17.67
2023-02-08T12:31:27.352Z,12.23
2023-02-08T12:34:05.719Z,16.10
2023-02-08T12:37:11.662Z,14.65
2023-02-08T12:40:03.008Z,12.32
2023-02-08T12:42:41.667Z,12.50
2023-02-08T12:45:24.576Z,12.90
2023-02-08T12:48:04.734Z,13.52
2023-02-08T12:50:39.881Z,12.80
2023-02-08T12:53:19.090Z,12.45
2023-02-08T12:55:47.953Z,28.88
2023-02-08T12:58:26.303Z,19.05
2023-02-08T13:00:56.564Z,15.35
2023-02-08T13:03:35.479Z,14.15
2023-02-08T13:06:06.424Z,12.25
2023-02-08T13:08:41.685Z,17.83
2023-02-08T13:11:20.079Z,21.48
2023-02-08T13:13:59.985Z,12.90
2023-02-08T13:16:31.482Z,12.02
2023-02-08T13:19:09.437Z,18.35
2023-02-08T13:21:41.988Z,14.10
2023-02-08T13:24:33.230Z,12.23
2023-02-08T13:27:01.858Z,15.07
2023-02-08T13:29:31.132Z,13.45
2023-02-08T13:32:02.444Z,16.02
2023-02-08T13:34:34.968Z,12.93
2023-02-08T13:37:13.477Z,13.63
2023-02-08T13:39:50.409Z,20.70
2023-02-08T13:42:24.794Z,16.33
2023-02-08T13:44:55.675Z,15.23
2023-02-08T13:47:26.958Z,14.93
2023-02-08T13:52:52.403Z,17.38
2023-02-08T13:55:46.172Z,14.73
2023-02-08T13:58:52.943Z,18.80
2023-02-08T14:01:22.788Z,19.65
2023-02-08T14:04:17.445Z,16.83
2023-02-08T14:06:50.155Z,17.08
2023-02-08T14:09:23.538Z,15.65
2023-02-08T14:11:57.731Z,16.15
2023-02-08T14:14:28.689Z,18.80
2023-02-08T14:17:12.748Z,15.32
2023-02-08T14:19:44.372Z,17.00
2023-02-08T14:22:19.094Z,18.38
2023-02-08T14:24:49.983Z,15.82
2023-02-08T14:27:25.234Z,18.33
2023-02-08T14:29:59.012Z,16.85
2023-02-08T14:32:29.365Z,23.75
2023-02-08T14:35:04.081Z,21.10
2023-02-08T14:37:34.451Z,19.23
2023-02-08T14:40:40.506Z,22.13
2023-02-08T14:43:32.344Z,15.82
2023-02-08T14:46:34.319Z,16.10
2023-02-08T14:49:03.403Z,24.15
2023-02-08T14:51:35.419Z,17.08
2023-02-08T14:54:12.184Z,17.23
2023-02-08T14:56:50.573Z,17.73
2023-02-08T14:59:22.584Z,25.63
2023-02-08T15:01:53.826Z,17.60
2023-02-08T15:04:22.696Z,21.58
2023-02-08T15:07:16.914Z,17.98
2023-02-08T15:09:46.132Z,19.60
2023-02-08T15:12:21.696Z,20.63
2023-02-08T15:14:53.903Z,19.40
2023-02-08T15:17:30.939Z,18.83
2023-02-08T15:20:00.284Z,19.55
2023-02-08T15:22:33.937Z,22.35
2023-02-08T15:25:13.042Z,18.92
2023-02-08T15:27:48.321Z,20.10
2023-02-08T15:30:34.034Z,27.05
2023-02-08T15:33:04.614Z,16.77
2023-02-08T15:35:34.743Z,16.45
2023-02-08T15:38:05.897Z,20.05
2023-02-08T15:40:36.081Z,25.40
2023-02-08T15:43:10.499Z,23.65
2023-02-08T15:45:41.108Z,25.15
2023-02-08T15:48:09.877Z,23.97
2023-02-08T15:50:38.570Z,22.20
2023-02-08T15:53:08.685Z,36.00
2023-02-08T15:55:41.383Z,19.88
2023-02-08T15:58:16.151Z,21.58
2023-02-08T16:00:47.463Z,22.67
2023-02-08T16:03:19.661Z,25.08
2023-02-08T16:05:51.515Z,23.20
2023-02-08T16:08:23.060Z,25.98
2023-02-08T16:10:54.150Z,29.80
2023-02-08T16:13:25.329Z,27.38
2023-02-08T16:16:07.127Z,22.50
2023-02-08T16:18:42.091Z,24.60
2023-02-08T16:21:24.920Z,23.52
2023-02-08T16:23:58.213Z,27.17
2023-02-08T16:26:28.869Z,33.42
2023-02-08T16:28:59.811Z,26.52
2023-02-08T16:34:01.813Z,26.17
2023-02-08T16:36:34.899Z,21.95
2023-02-08T16:39:37.658Z,24.42
2023-02-08T16:42:15.983Z,21.13
2023-02-08T16:45:03.548Z,22.20
2023-02-08T16:47:39.206Z,21.27
2023-02-08T16:50:08.538Z,21.42
2023-02-08T16:52:37.535Z,21.88
2023-02-08T16:55:06.770Z,24.70
2023-02-08T16:57:42.777Z,23.13
2023-02-08T17:00:20.093Z,26.23
2023-02-08T17:02:50.324Z,26.40
2023-02-08T17:05:20.466Z,43.92
2023-02-08T17:07:49.951Z,26.43
2023-02-08T17:10:23.435Z,23.38
2023-02-08T17:12:53.387Z,26.70
2023-02-08T17:15:27.006Z,28.75
2023-02-08T17:17:57.881Z,28.25
2023-02-08T17:20:28.684Z,27.08
2023-02-08T17:23:00.122Z,29.63
2023-02-08T17:25:28.921Z,29.80
2023-02-08T17:27:59.461Z,28.75
2023-02-08T17:30:30.755Z,27.75
2023-02-08T17:33:00.716Z,25.23
2023-02-08T17:35:30.027Z,24.52
2023-02-08T17:37:59.489Z,25.20
2023-02-08T17:40:31.312Z,25.77
2023-02-08T17:43:00.370Z,34.72
2023-02-08T17:45:30.006Z,30.02
2023-02-08T17:48:02.216Z,30.02
2023-02-08T17:50:30.654Z,26.85
2023-02-08T17:52:59.349Z,31.73
2023-02-08T17:55:27.625Z,30.98
2023-02-08T17:57:56.172Z,29.52
2023-02-08T18:00:25.369Z,26.70
2023-02-08T18:02:55.904Z,28.13
2023-02-08T18:05:28.000Z,32.28
2023-02-08T18:07:57.874Z,29.77
2023-02-08T18:10:26.527Z,35.33
2023-02-08T18:12:55.497Z,29.45
2023-02-08T18:15:24.229Z,27.65
2023-02-08T18:17:52.967Z,28.00
2023-02-08T18:20:21.640Z,30.42
2023-02-08T18:22:51.461Z,29.00
2023-02-08T18:25:20.725Z,30.10
2023-02-08T18:27:50.293Z,34.15
2023-02-08T18:30:19.117Z,28.98
2023-02-08T18:32:47.800Z,26.85
2023-02-08T18:35:16.410Z,32.72
2023-02-08T18:37:46.626Z,28.95
2023-02-08T18:40:17.599Z,28.33
2023-02-08T18:42:46.314Z,27.95
2023-02-08T18:45:15.354Z,43.50
2023-02-08T18:47:43.866Z,27.35
2023-02-08T18:50:12.831Z,27.92
2023-02-08T18:52:41.459Z,25.83
2023-02-08T18:55:09.897Z,25.27
2023-02-08T18:57:40.288Z,27.17
2023-02-08T19:00:09.879Z,25.63
2023-02-08T19:02:39.619Z,26.35
2023-02-08T19:05:08.933Z,28.45
2023-02-08T19:07:39.070Z,31.35
2023-02-08T19:10:08.693Z,32.95
2023-02-08T19:12:38.500Z,31.85
2023-02-08T19:15:09.343Z,27.77
2023-02-08T19:20:06.979Z,27.33
2023-02-08T19:22:35.648Z,25.77
2023-02-08T19:25:04.063Z,28.48
2023-02-08T19:27:32.917Z,30.15
2023-02-08T19:30:01.254Z,31.35
2023-02-08T19:32:31.348Z,29.70
2023-02-08T19:34:59.838Z,28.60
2023-02-08T19:37:28.615Z,31.35
2023-02-08T19:39:57.056Z,30.60
2023-02-08T19:42:25.632Z,29.92
2023-02-08T19:44:53.925Z,33.28
2023-02-08T19:47:43.455Z,30.73
2023-02-08T19:50:16.252Z,29.77
2023-02-08T19:52:45.145Z,30.05
2023-02-08T19:55:13.768Z,29.95
2023-02-08T19:57:42.358Z,29.67
2023-02-08T20:00:22.977Z,31.23
2023-02-08T20:02:53.136Z,32.30
2023-02-08T20:05:22.830Z,34.75
2023-02-08T20:07:54.831Z,34.65
2023-02-08T20:10:23.228Z,30.45
2023-02-08T20:12:52.246Z,28.83
2023-02-08T20:15:20.442Z,29.35
2023-02-08T20:17:51.840Z,30.27
2023-02-08T20:20:21.543Z,28.85
2023-02-08T20:22:51.657Z,27.58
2023-02-08T20:25:20.245Z,28.63
2023-02-08T20:27:49.322Z,29.10
2023-02-08T20:30:18.295Z,27.02
2023-02-08T20:32:47.341Z,28.83
2023-02-08T20:35:15.914Z,28.42
2023-02-08T20:37:45.033Z,29.45
2023-02-08T20:40:15.687Z,32.70
2023-02-08T20:45:14.497Z,28.45
2023-02-08T20:47:46.861Z,36.90
2023-02-08T20:52:49.293Z,28.77
2023-02-08T20:55:20.041Z,29.92
2023-02-08T21:00:17.632Z,30.40
2023-02-08T21:02:46.344Z,30.88
2023-02-08T21:05:15.720Z,30.77
2023-02-08T21:07:44.431Z,29.63
2023-02-08T21:10:13.292Z,30.63
2023-02-08T21:12:43.573Z,30.58
2023-02-08T21:15:12.270Z,29.40
2023-02-08T21:17:41.298Z,33.00
2023-02-08T21:20:12.096Z,32.35
2023-02-08T21:22:40.691Z,30.25
2023-02-08T21:25:10.275Z,31.92
2023-02-08T21:27:38.815Z,31.35
2023-02-08T21:30:09.522Z,32.03
2023-02-08T21:32:38.041Z,31.42
2023-02-08T21:35:07.132Z,33.58
2023-02-08T21:37:35.765Z,45.60
2023-02-08T21:40:04.113Z,33.63
2023-02-08T21:42:34.421Z,33.03
2023-02-08T21:45:02.774Z,35.70
2023-02-08T21:47:32.842Z,38.75
2023-02-08T21:50:18.918Z,39.05
2023-02-08T21:53:05.553Z,43.58
2023-02-08T21:55:33.948Z,45.63
2023-02-08T21:58:02.531Z,49.92
2023-02-08T22:00:31.455Z,47.20
2023-02-08T22:03:02.028Z,46.72
2023-02-08T22:05:30.728Z,51.33
2023-02-08T22:08:00.506Z,48.85
2023-02-08T22:10:30.680Z,50.45
2023-02-08T22:12:59.665Z,54.00
2023-02-08T22:15:29.730Z,61.63
2023-02-08T22:17:59.804Z,67.63
2023-02-08T22:20:30.282Z,67.43
2023-02-08T22:22:59.057Z,67.65
2023-02-08T22:25:27.398Z,67.80
2023-02-08T22:27:56.142Z,66.70
2023-02-08T22:30:25.647Z,65.60
2023-02-08T22:32:54.744Z,65.53
2023-02-08T22:35:23.040Z,66.30
2023-02-08T22:37:53.078Z,59.30
2023-02-08T22:40:23.025Z,60.33
2023-02-08T22:42:51.806Z,57.00
2023-02-08T22:45:20.169Z,54.55
2023-02-08T22:47:48.951Z,53.47
2023-02-08T22:50:17.451Z,54.97
2023-02-08T22:52:46.168Z,53.28
2023-02-08T22:55:16.254Z,54.45
2023-02-08T22:57:45.466Z,55.08
2023-02-08T23:00:16.502Z,53.20
2023-02-08T23:02:45.203Z,58.13
2023-02-08T23:05:14.676Z,58.90
2023-02-08T23:07:43.315Z,53.45
2023-02-08T23:10:12.857Z,51.33
2023-02-08T23:12:42.762Z,52.75
2023-02-08T23:15:12.043Z,51.20
2023-02-08T23:17:40.630Z,49.38
2023-02-08T23:20:10.069Z,54.30
2023-02-08T23:22:39.257Z,48.90
2023-02-08T23:25:08.125Z,58.05
2023-02-08T23:27:37.692Z,51.10
2023-02-08T23:30:09.660Z,47.10
2023-02-08T23:32:38.767Z,47.35
2023-02-08T23:35:08.129Z,46.50
2023-02-08T23:37:36.402Z,47.70
2023-02-08T23:40:06.438Z,52.60
2023-02-08T23:42:34.756Z,48.92
2023-02-08T23:45:03.648Z,46.17
2023-02-08T23:47:33.411Z,44.85
2023-02-08T23:50:02.052Z,47.40
2023-02-08T23:52:30.558Z,46.78
2023-02-08T23:54:59.166Z,46.35
2023-02-08T23:57:29.659Z,47.67
2023-02-08T23:59:59.802Z,47.95
